Time;durP1;ratioP1;P1;durP2;ratioP2;P2;SDS_P1;SDS_P2;PMS_P1;PMS_P2;Temp;Humidity;BMP_temperature;BMP_pressure;BME280_temperature;BME280_humidity;BME280_pressure;Samples;Min_cycle;Max_cycle;Signal;HPM_P1;HPM_P2
2022/06/14 00:01:59;;;;;;;1.57;0.90;;;12.70;99.90;;;;;;4142883;28;20202;-71
2022/06/14 00:04:01;;;;;;;3.43;1.10;;;12.60;99.90;;;;;;4146682;28;20210;-70
2022/06/14 00:06:05;;;;;;;2.00;1.00;;;12.60;99.90;;;;;;4146235;28;20218;-71
2022/06/14 00:08:09;;;;;;;2.43;1.20;;;12.60;99.90;;;;;;4145903;28;20207;-71
2022/06/14 00:10:12;;;;;;;2.63;0.80;;;12.60;99.90;;;;;;4146456;28;20287;-70
2022/06/14 00:12:13;;;;;;;3.57;0.90;;;12.50;99.90;;;;;;4147691;28;20214;-71
2022/06/14 00:14:15;;;;;;;2.90;0.90;;;12.50;99.90;;;;;;4147564;28;20653;-71
2022/06/14 00:16:18;;;;;;;3.47;1.10;;;12.50;99.90;;;;;;4147546;28;20217;-70
2022/06/14 00:18:20;;;;;;;2.03;0.80;;;12.40;99.90;;;;;;4145941;28;20207;-71
2022/06/14 00:20:22;;;;;;;4.03;1.00;;;12.40;99.90;;;;;;4146604;28;20280;-70
2022/06/14 00:22:24;;;;;;;2.33;0.80;;;12.40;99.90;;;;;;4143923;28;20274;-70
2022/06/14 00:24:29;;;;;;;4.23;1.00;;;12.40;99.90;;;;;;4142616;28;20302;-71
2022/06/14 00:26:31;;;;;;;2.73;0.70;;;12.30;99.90;;;;;;4146649;28;20245;-71
2022/06/14 00:28:34;;;;;;;1.10;0.80;;;12.30;99.90;;;;;;4147274;28;20285;-71
2022/06/14 00:30:37;;;;;;;1.87;0.90;;;12.30;99.90;;;;;;4128866;28;20294;-70
2022/06/14 00:32:39;;;;;;;4.40;1.00;;;12.30;99.90;;;;;;4145224;28;21186;-71
2022/06/14 00:34:41;;;;;;;1.23;0.83;;;12.30;99.90;;;;;;4145617;28;20217;-70
2022/06/14 00:36:51;;;;;;;1.67;0.90;;;12.20;99.90;;;;;;4146165;28;20321;-70
2022/06/14 00:38:53;;;;;;;2.40;1.10;;;12.20;99.90;;;;;;4144513;28;20234;-71
2022/06/14 00:41:01;;;;;;;1.40;1.03;;;12.20;99.90;;;;;;4144790;28;20225;-71
2022/06/14 00:43:05;;;;;;;1.83;1.00;;;12.10;99.90;;;;;;4148062;28;20328;-71
2022/06/14 00:45:29;;;;;;;1.63;0.90;;;12.10;99.90;;;;;;4144692;28;20212;-71
2022/06/14 00:47:37;;;;;;;3.90;1.00;;;12.10;99.90;;;;;;4143307;28;20226;-71
2022/06/14 00:49:45;;;;;;;1.80;0.90;;;12.00;99.90;;;;;;4144745;28;20271;-71
2022/06/14 00:51:53;;;;;;;1.17;0.93;;;12.00;99.90;;;;;;4145036;28;20205;-71
2022/06/14 00:54:00;;;;;;;1.30;0.80;;;12.00;99.90;;;;;;4144820;28;20732;-71
2022/06/14 00:56:05;;;;;;;1.60;0.80;;;12.00;99.90;;;;;;4144300;28;20217;-71
2022/06/14 00:58:11;;;;;;;2.93;0.90;;;11.90;99.90;;;;;;4141994;28;20237;-70
2022/06/14 01:00:18;;;;;;;1.60;1.00;;;11.90;99.90;;;;;;4144892;28;20536;-71
2022/06/14 01:02:24;;;;;;;5.60;1.20;;;11.90;99.90;;;;;;4143933;28;20214;-72
2022/06/14 01:04:32;;;;;;;1.37;0.80;;;11.80;99.90;;;;;;4143915;28;20235;-71
2022/06/14 01:06:43;;;;;;;2.53;1.10;;;11.80;99.90;;;;;;4144469;28;20224;-72
2022/06/14 01:08:49;;;;;;;2.23;0.97;;;11.80;99.90;;;;;;4144429;28;20241;-71
2022/06/14 01:10:51;;;;;;;3.17;0.97;;;11.70;99.90;;;;;;4147828;28;20243;-72
2022/06/14 01:12:57;;;;;;;2.30;1.20;;;11.70;99.90;;;;;;4144409;28;20237;-72
2022/06/14 01:15:04;;;;;;;4.03;1.13;;;11.60;99.90;;;;;;4145393;28;20247;-72
2022/06/14 01:17:09;;;;;;;1.93;1.00;;;11.60;99.90;;;;;;4142843;28;20232;-72
2022/06/14 01:19:17;;;;;;;2.30;1.30;;;11.60;99.90;;;;;;4143867;28;20431;-74
2022/06/14 01:21:21;;;;;;;2.50;1.20;;;11.50;99.90;;;;;;4144634;28;20204;-73
2022/06/14 01:23:24;;;;;;;2.43;1.20;;;11.50;99.90;;;;;;4142856;28;20639;-71
2022/06/14 01:25:30;;;;;;;2.73;1.10;;;11.50;99.90;;;;;;4145640;28;20263;-71
2022/06/14 01:27:33;;;;;;;3.47;1.80;;;11.50;99.90;;;;;;4145461;28;20584;-71
2022/06/14 01:29:37;;;;;;;1.90;1.27;;;11.40;99.90;;;;;;4149097;28;20225;-71
2022/06/14 01:31:40;;;;;;;1.93;1.10;;;11.40;99.90;;;;;;4146979;28;20355;-72
2022/06/14 01:33:46;;;;;;;1.20;0.90;;;11.30;99.90;;;;;;4146567;28;20743;-71
2022/06/14 01:35:52;;;;;;;2.70;1.30;;;11.30;99.90;;;;;;4145356;28;20335;-71
2022/06/14 01:37:55;;;;;;;2.53;1.30;;;11.30;99.90;;;;;;4146650;28;20213;-72
2022/06/14 01:39:59;;;;;;;2.50;1.33;;;11.20;99.90;;;;;;4148879;28;20243;-72
2022/06/14 01:42:11;;;;;;;1.53;1.10;;;11.20;99.90;;;;;;4149169;28;20213;-72
2022/06/14 01:44:29;;;;;;;2.83;1.10;;;11.20;99.90;;;;;;4146835;28;20215;-73
2022/06/14 01:46:37;;;;;;;2.10;1.33;;;11.10;99.90;;;;;;4133347;28;20305;-73
2022/06/14 01:48:46;;;;;;;2.57;1.07;;;11.10;99.90;;;;;;4147605;28;20201;-73
2022/06/14 01:53:25;;;;;;;1.27;1.10;;;11.10;99.90;;;;;;4149474;28;20725;-73
2022/06/14 01:55:37;;;;;;;6.07;1.20;;;11.10;99.90;;;;;;4144339;28;20208;-73
2022/06/14 01:57:47;;;;;;;2.47;1.20;;;11.10;99.90;;;;;;4148414;28;20572;-73
2022/06/14 01:59:58;;;;;;;2.60;1.20;;;11.00;99.90;;;;;;4127995;28;20229;-73
2022/06/14 02:02:06;;;;;;;2.93;1.10;;;11.00;99.90;;;;;;4128335;28;20595;-72
2022/06/14 02:06:44;;;;;;;2.77;1.10;;;11.00;99.90;;;;;;4131629;28;20212;-72
2022/06/14 02:08:53;;;;;;;3.33;1.20;;;10.90;99.90;;;;;;4150602;28;20196;-72
2022/06/14 02:11:00;;;;;;;1.43;1.30;;;10.90;99.90;;;;;;4151354;28;20215;-72
2022/06/14 02:13:05;;;;;;;1.30;1.03;;;10.90;99.90;;;;;;4146437;28;20263;-72
2022/06/14 02:15:15;;;;;;;1.57;1.13;;;10.90;99.90;;;;;;4130181;28;20213;-71
2022/06/14 02:17:24;;;;;;;2.37;1.40;;;10.90;99.90;;;;;;4131934;28;20666;-72
2022/06/14 02:19:32;;;;;;;2.07;1.20;;;10.80;99.90;;;;;;4144165;28;20316;-72
2022/06/14 02:21:37;;;;;;;2.00;1.27;;;10.80;99.90;;;;;;4129375;28;20239;-72
2022/06/14 02:23:42;;;;;;;1.67;1.30;;;10.80;99.90;;;;;;4130095;28;20206;-72
2022/06/14 02:25:50;;;;;;;1.70;1.23;;;10.80;99.90;;;;;;4132668;28;20219;-72
2022/06/14 02:27:58;;;;;;;2.07;1.20;;;10.70;99.90;;;;;;4147122;28;20265;-72
2022/06/14 02:30:04;;;;;;;4.43;2.90;;;10.80;99.90;;;;;;4147626;28;20266;-72
2022/06/14 02:32:11;;;;;;;7.63;2.90;;;10.80;99.90;;;;;;4147417;28;20306;-72
2022/06/14 02:34:18;;;;;;;7.97;4.00;;;10.70;99.90;;;;;;4147181;28;20296;-72
2022/06/14 02:36:34;;;;;;;10.47;4.37;;;10.70;99.90;;;;;;4131125;28;20712;-72
2022/06/14 02:38:41;;;;;;;6.63;3.70;;;10.70;99.90;;;;;;4144652;28;20215;-71
2022/06/14 02:40:47;;;;;;;7.60;3.73;;;10.70;99.90;;;;;;4151907;28;20296;-71
2022/06/14 02:42:56;;;;;;;6.40;2.83;;;10.70;99.90;;;;;;4147691;28;20212;-72
2022/06/14 02:45:03;;;;;;;5.50;2.60;;;10.70;99.90;;;;;;4147494;28;20678;-72
2022/06/14 02:47:11;;;;;;;6.63;2.43;;;10.60;99.90;;;;;;4146742;28;20215;-72
2022/06/14 02:49:16;;;;;;;4.97;2.90;;;10.60;99.90;;;;;;4145764;28;20231;-71
2022/06/14 02:51:23;;;;;;;5.23;2.73;;;10.60;99.90;;;;;;4148586;28;20662;-71
2022/06/14 02:53:28;;;;;;;4.77;2.47;;;10.60;99.90;;;;;;4146713;28;21153;-71
2022/06/14 02:55:33;;;;;;;7.23;2.53;;;10.60;99.90;;;;;;4143332;28;20295;-72
2022/06/14 02:57:43;;;;;;;3.83;2.10;;;10.60;99.90;;;;;;4128686;28;20214;-72
2022/06/14 02:59:55;;;;;;;3.23;2.00;;;10.60;99.90;;;;;;4126921;28;20228;-72
2022/06/14 03:02:00;;;;;;;3.50;1.90;;;10.60;99.90;;;;;;4146709;28;20307;-72
2022/06/14 03:04:08;;;;;;;5.23;1.97;;;10.60;99.90;;;;;;4129773;28;20842;-71
2022/06/14 03:06:18;;;;;;;2.27;1.53;;;10.60;99.90;;;;;;4146275;28;20299;-72
2022/06/14 03:08:25;;;;;;;4.93;1.40;;;10.50;99.90;;;;;;4148887;28;20200;-72
2022/06/14 03:10:37;;;;;;;2.30;1.47;;;10.50;99.90;;;;;;4128885;28;20248;-71
2022/06/14 03:12:46;;;;;;;3.60;1.60;;;10.50;99.90;;;;;;4129877;28;20225;-72
2022/06/14 03:15:01;;;;;;;5.07;2.30;;;10.50;99.90;;;;;;4147476;28;20243;-72
2022/06/14 03:17:16;;;;;;;3.63;1.73;;;10.50;99.90;;;;;;4150382;28;20292;-72
2022/06/14 03:19:24;;;;;;;4.70;1.70;;;10.50;99.90;;;;;;4148029;28;20261;-72
2022/06/14 03:21:35;;;;;;;2.80;1.53;;;10.40;99.90;;;;;;4127422;28;20678;-72
2022/06/14 03:23:44;;;;;;;4.57;1.90;;;10.40;99.90;;;;;;4129815;28;20212;-72
2022/06/14 03:25:52;;;;;;;3.67;1.30;;;10.40;99.90;;;;;;4146331;28;20262;-72
2022/06/14 03:28:01;;;;;;;4.03;1.80;;;10.40;99.90;;;;;;4145950;28;20210;-72
2022/06/14 03:30:10;;;;;;;3.57;1.70;;;10.40;99.90;;;;;;4147312;28;20294;-71
2022/06/14 03:32:16;;;;;;;4.07;1.70;;;10.40;99.90;;;;;;4147330;28;20660;-72
2022/06/14 03:34:22;;;;;;;1.93;1.50;;;10.30;99.90;;;;;;4145470;28;20239;-72
2022/06/14 03:36:24;;;;;;;1.47;1.37;;;10.40;99.90;;;;;;4145717;28;20635;-72
2022/06/14 03:38:33;;;;;;;4.00;1.70;;;10.30;99.90;;;;;;4146384;28;20603;-72
2022/06/14 03:40:35;;;;;;;3.07;1.50;;;10.30;99.90;;;;;;4149599;28;20214;-73
2022/06/14 03:42:38;;;;;;;3.20;1.60;;;10.30;99.90;;;;;;4130481;28;20313;-72
2022/06/14 03:44:41;;;;;;;1.60;1.27;;;10.30;99.90;;;;;;4146256;28;20199;-71
2022/06/14 03:46:50;;;;;;;1.77;1.40;;;10.40;99.90;;;;;;4146568;28;20282;-72
2022/06/14 03:48:55;;;;;;;3.23;1.50;;;10.30;99.90;;;;;;4147893;28;20332;-72
2022/06/14 03:51:10;;;;;;;2.97;1.70;;;10.30;99.90;;;;;;4143414;28;20286;-73
2022/06/14 03:53:25;;;;;;;2.77;1.50;;;10.30;99.90;;;;;;4128819;28;20255;-72
2022/06/14 03:55:42;;;;;;;2.10;1.47;;;10.30;99.90;;;;;;4146751;28;20207;-73
2022/06/14 03:58:01;;;;;;;1.70;1.47;;;10.30;99.90;;;;;;4146306;28;20215;-73
2022/06/14 04:00:18;;;;;;;3.13;1.73;;;10.30;99.90;;;;;;4147036;28;20315;-72
2022/06/14 04:04:56;;;;;;;5.57;1.50;;;10.30;99.90;;;;;;4129146;28;20209;-73
2022/06/14 04:07:08;;;;;;;2.83;1.80;;;10.30;99.90;;;;;;4127916;28;20582;-72
2022/06/14 04:09:19;;;;;;;4.47;1.70;;;10.30;99.90;;;;;;4148278;28;20303;-72
2022/06/14 04:11:35;;;;;;;2.33;1.43;;;10.40;99.90;;;;;;4151528;28;20270;-72
2022/06/14 04:13:44;;;;;;;3.13;1.30;;;10.30;99.90;;;;;;4145305;28;20270;-72
2022/06/14 04:15:51;;;;;;;2.07;1.50;;;10.40;99.90;;;;;;4145889;28;20213;-72
2022/06/14 04:18:34;;;;;;;2.53;1.47;;;10.40;99.90;;;;;;4127166;28;20321;-72
2022/06/14 04:20:30;;;;;;;2.43;1.67;;;10.40;99.90;;;;;;4145171;28;20238;-72
2022/06/14 04:22:42;;;;;;;2.13;1.40;;;10.50;99.90;;;;;;4129379;28;20259;-73
2022/06/14 04:24:51;;;;;;;1.70;1.53;;;10.50;99.90;;;;;;4145749;28;20227;-73
2022/06/14 04:27:00;;;;;;;3.13;1.87;;;10.60;99.90;;;;;;4128189;28;20212;-72
2022/06/14 04:29:12;;;;;;;5.33;1.73;;;10.60;99.90;;;;;;4148808;28;20809;-72
2022/06/14 04:31:19;;;;;;;4.70;2.00;;;10.70;99.90;;;;;;4149119;28;20282;-73
2022/06/14 04:33:29;;;;;;;4.47;1.80;;;10.70;99.90;;;;;;4129719;28;20201;-72
2022/06/14 04:35:37;;;;;;;3.57;1.63;;;10.80;99.90;;;;;;4146234;28;20263;-72
2022/06/14 04:37:45;;;;;;;2.70;1.73;;;10.80;99.90;;;;;;4127638;28;20289;-72
2022/06/14 04:39:52;;;;;;;4.23;2.07;;;10.80;99.90;;;;;;4144309;28;20230;-72
2022/06/14 04:41:59;;;;;;;3.43;1.80;;;10.80;99.90;;;;;;4145561;28;20250;-72
2022/06/14 04:44:07;;;;;;;2.60;1.70;;;10.80;99.90;;;;;;4144347;28;20195;-72
2022/06/14 04:46:12;;;;;;;3.30;1.63;;;10.90;99.90;;;;;;4147980;28;20231;-71
2022/06/14 04:48:19;;;;;;;2.37;1.57;;;10.90;99.90;;;;;;4146780;28;20355;-71
2022/06/14 04:50:25;;;;;;;2.60;1.30;;;10.90;99.90;;;;;;4146426;28;20231;-71
2022/06/14 04:52:32;;;;;;;4.17;1.90;;;10.90;99.90;;;;;;4147209;28;20244;-71
2022/06/14 04:54:50;;;;;;;2.83;1.40;;;10.90;99.90;;;;;;4146858;28;20221;-70
2022/06/14 04:56:58;;;;;;;2.80;1.50;;;10.90;99.90;;;;;;4147702;28;20772;-71
2022/06/14 04:59:08;;;;;;;2.80;1.50;;;11.00;99.90;;;;;;4140594;28;20223;-71
2022/06/14 05:01:16;;;;;;;5.77;1.97;;;11.00;99.90;;;;;;4144127;28;20576;-70
2022/06/14 05:03:25;;;;;;;4.63;1.53;;;11.00;99.90;;;;;;4129256;28;20223;-70
2022/06/14 05:05:34;;;;;;;3.03;1.57;;;11.00;99.90;;;;;;4146445;28;20202;-70
2022/06/14 05:07:41;;;;;;;4.33;1.67;;;11.10;99.90;;;;;;4148748;28;20199;-70
2022/06/14 05:09:49;;;;;;;3.63;1.80;;;11.10;99.90;;;;;;4147005;28;20228;-70
2022/06/14 05:11:58;;;;;;;2.23;1.47;;;11.10;99.90;;;;;;4141016;28;20225;-70
2022/06/14 05:14:06;;;;;;;4.43;1.90;;;11.20;99.90;;;;;;4148107;28;20208;-70
2022/06/14 05:16:11;;;;;;;3.77;1.77;;;11.30;99.90;;;;;;4129822;28;20214;-71
2022/06/14 05:18:19;;;;;;;5.87;2.03;;;11.30;99.90;;;;;;4146342;28;20264;-71
2022/06/14 05:20:28;;;;;;;2.43;1.60;;;11.30;99.90;;;;;;4143926;28;20278;-71
2022/06/14 05:22:37;;;;;;;2.40;1.40;;;11.40;99.90;;;;;;4144200;28;20214;-71
2022/06/14 05:24:40;;;;;;;8.23;2.97;;;11.40;99.90;;;;;;4140146;28;20211;-71
2022/06/14 05:27:14;;;;;;;4.27;2.20;;;11.50;99.90;;;;;;4143288;28;20234;-71
2022/06/14 05:29:21;;;;;;;6.13;2.27;;;11.50;99.90;;;;;;4135956;28;20474;-71
2022/06/14 05:31:31;;;;;;;4.40;1.87;;;11.50;99.90;;;;;;4126140;28;20219;-71
2022/06/14 05:33:43;;;;;;;4.53;2.17;;;11.50;99.90;;;;;;4144043;28;20234;-71
2022/06/14 05:35:48;;;;;;;2.23;1.63;;;11.50;99.90;;;;;;4144020;28;20310;-72
2022/06/14 05:37:57;;;;;;;3.20;1.70;;;11.60;99.90;;;;;;4146392;28;20518;-72
2022/06/14 05:40:09;;;;;;;4.67;1.70;;;11.70;99.90;;;;;;4187842;23;20477;-78
2022/06/14 05:42:17;;;;;;;8.53;2.10;;;11.70;99.90;;;;;;4181664;28;20686;-79
2022/06/14 05:44:29;;;;;;;4.77;1.70;;;11.80;99.90;;;;;;4177119;28;20295;-79
2022/06/14 05:46:35;;;;;;;4.70;1.90;;;11.80;99.90;;;;;;4180862;28;20706;-79
2022/06/14 05:48:45;;;;;;;4.97;1.80;;;11.80;99.90;;;;;;4162818;28;20214;-79
2022/06/14 05:50:51;;;;;;;5.37;1.70;;;11.90;99.90;;;;;;4168982;28;20232;-79
2022/06/14 05:53:02;;;;;;;3.00;1.60;;;11.90;99.90;;;;;;4170021;28;20592;-79
2022/06/14 05:55:11;;;;;;;6.77;2.10;;;12.00;99.90;;;;;;4184360;28;20248;-79
2022/06/14 05:57:19;;;;;;;4.13;1.67;;;12.00;99.90;;;;;;4166163;28;20206;-79
2022/06/14 05:59:31;;;;;;;9.17;2.10;;;12.10;99.90;;;;;;4183294;28;20251;-79
2022/06/14 06:01:37;;;;;;;7.20;1.90;;;12.20;99.90;;;;;;4184050;28;20215;-79
2022/06/14 06:03:45;;;;;;;5.37;1.73;;;12.20;99.90;;;;;;4182641;28;20208;-79
2022/06/14 06:05:54;;;;;;;4.73;1.53;;;12.30;99.90;;;;;;4177302;28;20590;-79
2022/06/14 06:08:03;;;;;;;3.30;1.90;;;12.30;99.90;;;;;;4185286;28;20210;-79
2022/06/14 06:10:09;;;;;;;3.87;1.60;;;12.30;99.90;;;;;;4184272;28;20275;-79
2022/06/14 06:12:17;;;;;;;3.30;1.50;;;12.40;99.90;;;;;;4183088;28;20205;-79
2022/06/14 06:14:26;;;;;;;3.23;1.20;;;12.40;99.90;;;;;;4167332;28;20234;-79
2022/06/14 06:16:34;;;;;;;2.60;1.23;;;12.50;99.90;;;;;;4184914;28;20214;-77
2022/06/14 06:18:40;;;;;;;2.97;1.50;;;12.50;99.90;;;;;;4167161;28;20579;-78
2022/06/14 06:20:58;;;;;;;4.90;1.80;;;12.60;99.90;;;;;;4167609;28;20234;-75
2022/06/14 06:23:10;;;;;;;2.03;1.17;;;12.70;99.90;;;;;;4182419;28;20228;-80
2022/06/14 06:25:15;;;;;;;17.93;8.97;;;12.70;99.90;;;;;;4178244;28;20254;-77
2022/06/14 06:27:18;;;;;;;11.80;6.00;;;12.80;99.90;;;;;;4179005;28;20206;-77
2022/06/14 06:29:28;;;;;;;8.80;4.50;;;13.00;99.90;;;;;;4180524;28;20206;-77
2022/06/14 06:31:32;;;;;;;7.60;3.00;;;13.10;99.90;;;;;;4177494;28;20201;-78
2022/06/14 06:33:40;;;;;;;5.13;1.97;;;13.10;99.90;;;;;;4188091;28;20204;-77
2022/06/14 06:35:47;;;;;;;5.30;2.80;;;13.20;99.90;;;;;;4186455;28;20233;-76
2022/06/14 06:37:55;;;;;;;11.30;5.40;;;13.40;99.90;;;;;;4183416;28;20671;-76
2022/06/14 06:40:02;;;;;;;9.53;4.60;;;13.40;99.90;;;;;;4183754;28;20312;-76
2022/06/14 06:42:10;;;;;;;9.43;3.83;;;13.60;99.90;;;;;;4185200;28;20236;-76
2022/06/14 06:44:17;;;;;;;5.53;2.60;;;13.60;99.90;;;;;;4162483;28;20213;-75
2022/06/14 06:46:23;;;;;;;4.83;1.70;;;13.70;99.90;;;;;;4166308;28;20239;-76
2022/06/14 06:48:31;;;;;;;3.40;1.87;;;13.80;99.90;;;;;;4180089;28;20297;-77
2022/06/14 06:50:36;;;;;;;3.47;1.47;;;13.80;99.90;;;;;;4160774;28;20318;-78
2022/06/14 06:52:48;;;;;;;6.23;1.50;;;13.80;99.90;;;;;;4180655;28;20656;-75
2022/06/14 06:54:55;;;;;;;5.17;1.50;;;13.90;99.90;;;;;;4175524;28;20280;-77
2022/06/14 06:57:05;;;;;;;3.93;1.30;;;13.90;99.90;;;;;;4182450;28;20230;-76
2022/06/14 06:59:13;;;;;;;4.03;1.27;;;13.90;99.90;;;;;;4172465;28;20211;-76
2022/06/14 07:01:21;;;;;;;4.40;1.33;;;13.90;99.90;;;;;;4179357;28;20224;-77
2022/06/14 07:03:29;;;;;;;2.70;1.37;;;14.00;99.90;;;;;;4178343;28;20752;-77
2022/06/14 07:05:31;;;;;;;6.93;1.37;;;14.00;99.90;;;;;;4184274;28;20440;-77
2022/06/14 07:07:43;;;;;;;2.93;1.10;;;14.00;99.90;;;;;;4180952;28;20234;-77
2022/06/14 07:09:51;;;;;;;5.20;0.90;;;14.10;99.90;;;;;;4180323;28;20208;-77
2022/06/14 07:11:59;;;;;;;6.23;1.30;;;14.10;99.90;;;;;;4177414;28;20268;-75
2022/06/14 07:14:08;;;;;;;4.27;1.20;;;14.20;99.90;;;;;;4180014;28;20217;-75
2022/06/14 07:16:18;;;;;;;14.70;7.40;;;14.20;99.90;;;;;;4179519;28;20226;-76
2022/06/14 07:18:25;;;;;;;11.53;5.67;;;14.30;99.90;;;;;;4179796;28;20205;-76
2022/06/14 07:20:38;;;;;;;11.80;5.97;;;14.40;99.90;;;;;;4177915;28;20240;-77
2022/06/14 07:22:46;;;;;;;9.13;4.10;;;14.40;99.90;;;;;;4175883;28;20289;-79
2022/06/14 07:24:57;;;;;;;4.10;2.47;;;14.50;99.90;;;;;;4159664;28;20679;-79
2022/06/14 07:27:06;;;;;;;3.33;1.50;;;14.60;99.90;;;;;;4186279;28;20297;-87
2022/06/14 07:29:13;;;;;;;6.77;3.70;;;14.70;99.90;;;;;;4166203;28;20251;-81
2022/06/14 07:31:24;;;;;;;9.50;3.17;;;14.80;99.90;;;;;;4183884;28;20250;-82
2022/06/14 07:33:29;;;;;;;4.90;2.10;;;14.90;99.90;;;;;;4181989;28;20505;-82
2022/06/14 07:35:36;;;;;;;3.60;1.20;;;15.00;99.90;;;;;;4178253;28;20764;-80
2022/06/14 07:37:43;;;;;;;5.10;1.90;;;15.10;99.90;;;;;;4182143;28;20768;-74
2022/06/14 07:39:53;;;;;;;7.50;4.33;;;15.20;99.90;;;;;;4179495;28;20242;-78
2022/06/14 07:42:05;;;;;;;8.40;4.30;;;15.30;99.90;;;;;;4183041;28;20612;-80
2022/06/14 07:44:21;;;;;;;5.23;2.17;;;15.40;99.90;;;;;;4181106;28;20302;-81
2022/06/14 07:46:28;;;;;;;4.80;1.90;;;15.50;99.90;;;;;;4178483;28;20724;-80
2022/06/14 07:48:37;;;;;;;5.00;1.60;;;15.50;99.90;;;;;;4175802;28;20205;-81
2022/06/14 07:50:44;;;;;;;4.10;1.20;;;15.60;99.90;;;;;;4177582;28;20294;-80
2022/06/14 07:52:49;;;;;;;3.03;1.13;;;15.60;99.90;;;;;;4159616;28;20208;-80
2022/06/14 07:54:58;;;;;;;3.63;1.00;;;15.70;99.90;;;;;;4182074;28;20308;-80
2022/06/14 07:57:07;;;;;;;3.77;1.30;;;15.80;99.90;;;;;;4163322;28;20220;-79
2022/06/14 07:59:12;;;;;;;2.63;1.00;;;15.70;97.90;;;;;;4182100;28;20209;-80
2022/06/14 08:01:21;;;;;;;3.90;1.10;;;15.80;99.90;;;;;;4183102;28;20234;-80
2022/06/14 08:03:30;;;;;;;4.97;1.17;;;15.90;99.60;;;;;;4182870;28;20517;-79
2022/06/14 08:05:38;;;;;;;7.37;1.00;;;15.80;99.00;;;;;;4186622;28;20214;-78
2022/06/14 08:07:41;;;;;;;3.47;1.23;;;15.90;99.90;;;;;;4181077;28;20204;-79
2022/06/14 08:09:48;;;;;;;3.00;0.70;;;15.90;99.90;;;;;;4178826;28;20213;-79
2022/06/14 08:11:54;;;;;;;3.97;0.97;;;15.90;98.70;;;;;;4166313;28;20265;-81
2022/06/14 08:14:01;;;;;;;4.83;1.20;;;15.90;99.90;;;;;;4179522;28;20289;-80
2022/06/14 08:16:06;;;;;;;3.20;1.07;;;15.90;99.90;;;;;;4178254;28;20299;-79
2022/06/14 08:18:17;;;;;;;1.80;0.77;;;16.00;99.90;;;;;;4182699;28;20222;-80
2022/06/14 08:20:26;;;;;;;2.70;1.07;;;16.00;97.30;;;;;;4183503;28;20748;-79
2022/06/14 08:22:34;;;;;;;2.83;0.90;;;16.10;98.20;;;;;;4180953;28;20202;-79
2022/06/14 08:24:42;;;;;;;4.20;1.07;;;16.10;98.50;;;;;;4166650;28;20550;-80
2022/06/14 08:26:48;;;;;;;5.50;1.20;;;16.20;99.90;;;;;;4155649;28;20300;-80
2022/06/14 08:28:56;;;;;;;4.10;1.20;;;16.30;98.10;;;;;;4179577;28;20278;-79
2022/06/14 08:31:02;;;;;;;4.37;1.20;;;16.40;99.40;;;;;;4178366;28;20317;-80
2022/06/14 08:33:14;;;;;;;2.77;1.00;;;16.50;96.10;;;;;;4184035;28;20760;-79
2022/06/14 08:35:20;;;;;;;2.93;1.10;;;16.50;96.10;;;;;;4186065;28;20214;-80
2022/06/14 08:37:30;;;;;;;4.43;1.07;;;16.60;95.90;;;;;;4176643;28;20628;-79
2022/06/14 08:39:35;;;;;;;3.67;1.50;;;16.70;96.10;;;;;;4166911;28;20508;-79
2022/06/14 08:41:58;;;;;;;2.93;1.10;;;16.80;93.90;;;;;;4182963;28;20660;-80
2022/06/14 08:44:08;;;;;;;3.13;1.33;;;16.90;93.90;;;;;;4161139;28;20211;-80
2022/06/14 08:46:20;;;;;;;3.47;1.00;;;16.80;91.30;;;;;;4185562;28;20540;-80
2022/06/14 08:48:39;;;;;;;2.47;1.13;;;16.90;94.70;;;;;;4186447;28;20671;-79
2022/06/14 08:51:07;;;;;;;4.87;1.40;;;16.90;91.90;;;;;;4165626;28;20281;-79
2022/06/14 08:53:51;;;;;;;4.00;1.17;;;16.80;89.60;;;;;;4186045;28;20751;-79
2022/06/14 08:56:12;;;;;;;2.07;1.00;;;16.90;92.40;;;;;;4165454;28;20258;-80
2022/06/14 08:58:39;;;;;;;2.37;0.97;;;17.00;92.50;;;;;;4171451;28;20219;-81
2022/06/14 09:00:51;;;;;;;4.87;1.37;;;17.10;92.00;;;;;;4186345;28;20320;-80
2022/06/14 09:03:33;;;;;;;5.77;1.40;;;17.30;91.80;;;;;;4183036;28;20249;-82
2022/06/14 09:05:59;;;;;;;2.50;1.00;;;17.40;86.00;;;;;;4180928;28;20248;-80
2022/06/14 09:08:30;;;;;;;4.47;1.00;;;17.40;80.30;;;;;;4146511;28;20222;-80
2022/06/14 09:10:53;;;;;;;2.57;1.03;;;17.40;74.00;;;;;;4162434;28;20322;-80
2022/06/14 09:13:19;;;;;;;2.87;1.00;;;17.50;79.50;;;;;;4183418;28;20198;-80
2022/06/14 09:15:53;;;;;;;3.17;1.20;;;17.60;76.70;;;;;;4185019;28;20642;-79
2022/06/14 09:18:12;;;;;;;5.00;1.13;;;17.60;78.00;;;;;;4182787;28;20210;-80
2022/06/14 09:20:28;;;;;;;4.70;1.03;;;17.70;76.30;;;;;;4180573;28;20728;-80
2022/06/14 09:22:39;;;;;;;2.50;1.00;;;17.70;73.80;;;;;;4159847;28;20355;-80
2022/06/14 09:24:57;;;;;;;2.97;1.00;;;17.80;77.20;;;;;;4186999;28;20693;-79
2022/06/14 09:27:15;;;;;;;3.40;1.00;;;17.80;77.50;;;;;;4190863;28;20235;-81
2022/06/14 09:29:55;;;;;;;4.63;1.10;;;17.80;77.80;;;;;;4181455;28;20563;-80
2022/06/14 09:32:22;;;;;;;3.03;1.07;;;17.80;76.40;;;;;;4187743;28;20574;-80
2022/06/14 09:34:42;;;;;;;7.00;1.63;;;17.90;83.50;;;;;;4186782;28;20216;-79
2022/06/14 09:37:24;;;;;;;4.40;1.20;;;18.00;91.80;;;;;;4193069;28;20318;-82
2022/06/14 09:39:57;;;;;;;9.90;1.73;;;18.00;74.40;;;;;;4196609;28;20226;-83
2022/06/14 09:42:37;;;;;;;5.30;1.30;;;18.10;67.40;;;;;;4174696;28;20205;-81
2022/06/14 09:45:07;;;;;;;5.70;1.20;;;18.20;75.40;;;;;;4190036;28;20204;-80
2022/06/14 09:47:29;;;;;;;4.63;1.20;;;18.30;64.30;;;;;;4195864;28;20268;-78
2022/06/14 09:50:30;;;;;;;1.93;0.90;;;18.30;63.10;;;;;;4178210;28;20212;-81
2022/06/14 09:53:19;;;;;;;2.57;0.97;;;18.40;59.20;;;;;;4125542;28;20233;-81
2022/06/14 09:55:48;;;;;;;3.70;1.20;;;18.40;60.30;;;;;;4155407;28;20220;-83
2022/06/14 09:58:28;;;;;;;4.20;1.17;;;18.60;62.60;;;;;;4193240;28;20724;-81
2022/06/14 10:00:41;;;;;;;2.93;0.97;;;18.60;60.70;;;;;;4163274;28;20263;-81
2022/06/14 10:03:12;;;;;;;4.20;1.20;;;18.60;58.60;;;;;;4191258;28;20304;-83
2022/06/14 10:05:46;;;;;;;6.10;1.33;;;18.80;59.30;;;;;;4186540;28;20218;-80
2022/06/14 10:08:35;;;;;;;2.23;0.90;;;18.80;55.60;;;;;;4192024;28;20266;-81
2022/06/14 10:11:03;;;;;;;2.43;1.00;;;18.90;59.90;;;;;;4186245;28;20587;-81
2022/06/14 10:13:31;;;;;;;2.30;0.97;;;19.00;57.70;;;;;;4185628;28;20216;-81
2022/06/14 10:15:41;;;;;;;1.93;1.10;;;19.10;58.80;;;;;;4185362;28;20225;-80
2022/06/14 10:18:12;;;;;;;8.47;1.30;;;19.20;56.40;;;;;;4188351;28;20226;-80
2022/06/14 10:20:39;;;;;;;3.70;1.53;;;19.10;54.90;;;;;;4144855;28;20265;-80
2022/06/14 10:22:55;;;;;;;3.50;1.40;;;19.20;54.50;;;;;;4164221;28;20207;-81
2022/06/14 10:25:10;;;;;;;2.93;1.40;;;19.20;56.80;;;;;;4180741;28;20208;-81
2022/06/14 10:30:07;;;;;;;2.23;1.10;;;19.30;53.30;;;;;;4179786;28;20222;-81
2022/06/14 10:32:30;;;;;;;3.07;1.23;;;19.30;54.60;;;;;;4173011;28;20217;-81
2022/06/14 10:34:38;;;;;;;3.93;1.30;;;19.40;55.10;;;;;;4187867;28;20209;-82
2022/06/14 10:37:07;;;;;;;3.80;1.10;;;19.40;53.40;;;;;;4187525;28;20220;-82
2022/06/14 10:39:46;;;;;;;3.07;1.07;;;19.50;54.00;;;;;;4187151;28;20302;-82
2022/06/14 10:42:00;;;;;;;5.57;1.23;;;19.70;50.80;;;;;;4185595;28;20205;-81
2022/06/14 10:44:17;;;;;;;1.70;0.90;;;19.50;50.00;;;;;;4186209;28;20626;-81
2022/06/14 10:46:24;;;;;;;3.37;1.10;;;19.60;50.50;;;;;;4187801;28;20293;-81
2022/06/14 10:48:48;;;;;;;3.53;1.23;;;19.70;49.30;;;;;;4164153;28;20219;-81
2022/06/14 10:51:05;;;;;;;1.97;1.00;;;19.70;49.50;;;;;;4147664;28;20326;-81
2022/06/14 10:53:19;;;;;;;3.20;1.10;;;19.70;48.70;;;;;;4180147;28;20209;-83
2022/06/14 10:55:45;;;;;;;4.03;1.20;;;19.70;48.30;;;;;;4183890;28;20591;-82
2022/06/14 10:58:05;;;;;;;3.30;1.00;;;19.70;48.60;;;;;;4183142;28;20258;-82
2022/06/14 11:00:14;;;;;;;3.97;0.97;;;19.80;48.90;;;;;;4179333;28;20635;-81
2022/06/14 11:02:29;;;;;;;2.87;0.90;;;20.00;49.10;;;;;;4181407;28;20204;-80
2022/06/14 11:04:36;;;;;;;4.67;1.10;;;20.00;48.00;;;;;;4183270;28;20213;-81
2022/06/14 11:07:11;;;;;;;5.57;1.20;;;20.10;48.40;;;;;;4184470;28;20259;-82
2022/06/14 11:09:25;;;;;;;2.10;1.07;;;20.20;47.00;;;;;;4184136;28;20216;-80
2022/06/14 11:12:06;;;;;;;2.47;1.03;;;20.20;46.70;;;;;;4185962;28;20225;-80
2022/06/14 11:14:16;;;;;;;1.77;0.83;;;20.20;47.70;;;;;;4181739;28;20206;-81
2022/06/14 11:16:28;;;;;;;3.33;1.00;;;20.40;49.20;;;;;;4181296;28;20232;-80
2022/06/14 11:18:57;;;;;;;1.30;0.80;;;20.50;50.40;;;;;;4181414;28;20582;-81
2022/06/14 11:21:07;;;;;;;3.97;1.20;;;20.80;50.00;;;;;;4182264;28;20254;-80
2022/06/14 11:23:15;;;;;;;2.03;0.90;;;21.00;49.90;;;;;;4181275;28;20268;-80
2022/06/14 11:25:34;;;;;;;2.60;0.90;;;21.20;50.00;;;;;;4184220;28;20207;-80
2022/06/14 11:27:48;;;;;;;3.13;1.00;;;21.30;45.80;;;;;;4173614;28;20208;-81
2022/06/14 11:30:06;;;;;;;4.33;1.30;;;21.50;47.60;;;;;;4184677;28;20264;-81
2022/06/14 11:32:15;;;;;;;3.20;1.20;;;21.70;45.00;;;;;;4165004;28;20220;-81
2022/06/14 11:34:37;;;;;;;2.73;1.10;;;21.80;45.60;;;;;;4183810;28;20204;-80